sensor_id;sensor_type;location;lat;lon;timestamp;temperature;humidity
15713;DHT22;7957;51.608;6.916;2023-03-08T00:01:36;2.50;99.90
15713;DHT22;7957;51.608;6.916;2023-03-08T00:04:03;2.50;99.90
15713;DHT22;7957;51.608;6.916;2023-03-08T00:06:30;2.60;99.90
15713;DHT22;7957;51.608;6.916;2023-03-08T00:09:01;2.50;99.90
15713;DHT22;7957;51.608;6.916;2023-03-08T00:11:28;2.50;99.90
15713;DHT22;7957;51.608;6.916;2023-03-08T00:13:56;2.50;99.90
15713;DHT22;7957;51.608;6.916;2023-03-08T00:16:25;2.50;99.90
15713;DHT22;7957;51.608;6.916;2023-03-08T00:18:52;2.50;99.90
15713;DHT22;7957;51.608;6.916;2023-03-08T00:21:19;2.50;99.90
15713;DHT22;7957;51.608;6.916;2023-03-08T00:23:46;2.50;99.90
15713;DHT22;7957;51.608;6.916;2023-03-08T00:26:13;2.50;99.90
15713;DHT22;7957;51.608;6.916;2023-03-08T00:28:40;2.50;99.90
15713;DHT22;7957;51.608;6.916;2023-03-08T00:31:09;2.50;99.90
15713;DHT22;7957;51.608;6.916;2023-03-08T00:33:38;2.50;99.90
15713;DHT22;7957;51.608;6.916;2023-03-08T00:36:08;2.50;99.90
15713;DHT22;7957;51.608;6.916;2023-03-08T00:38:36;2.50;99.90
15713;DHT22;7957;51.608;6.916;2023-03-08T00:41:03;2.50;99.90
15713;DHT22;7957;51.608;6.916;2023-03-08T00:43:30;2.50;99.90
15713;DHT22;7957;51.608;6.916;2023-03-08T00:45:57;2.50;99.90
15713;DHT22;7957;51.608;6.916;2023-03-08T00:48:24;2.50;99.90
15713;DHT22;7957;51.608;6.916;2023-03-08T00:50:53;2.50;99.90
15713;DHT22;7957;51.608;6.916;2023-03-08T00:53:20;2.50;99.90
15713;DHT22;7957;51.608;6.916;2023-03-08T00:55:48;2.40;99.90
15713;DHT22;7957;51.608;6.916;2023-03-08T00:58:15;2.50;99.90
15713;DHT22;7957;51.608;6.916;2023-03-08T01:00:42;2.40;99.90
15713;DHT22;7957;51.608;6.916;2023-03-08T01:03:09;2.40;99.90
15713;DHT22;7957;51.608;6.916;2023-03-08T01:05:38;2.40;99.90
15713;DHT22;7957;51.608;6.916;2023-03-08T01:08:07;2.50;99.90
15713;DHT22;7957;51.608;6.916;2023-03-08T01:10:34;2.40;99.90
15713;DHT22;7957;51.608;6.916;2023-03-08T01:13:03;2.40;99.90
15713;DHT22;7957;51.608;6.916;2023-03-08T01:15:34;2.40;99.90
15713;DHT22;7957;51.608;6.916;2023-03-08T01:18:01;2.40;99.90
15713;DHT22;7957;51.608;6.916;2023-03-08T01:20:28;2.40;99.90
15713;DHT22;7957;51.608;6.916;2023-03-08T01:22:55;2.40;99.90
15713;DHT22;7957;51.608;6.916;2023-03-08T01:25:23;2.50;99.90
15713;DHT22;7957;51.608;6.916;2023-03-08T01:27:51;2.40;99.90
15713;DHT22;7957;51.608;6.916;2023-03-08T01:30:18;2.40;99.90
15713;DHT22;7957;51.608;6.916;2023-03-08T01:32:45;2.40;99.90
15713;DHT22;7957;51.608;6.916;2023-03-08T01:35:12;2.40;99.90
15713;DHT22;7957;51.608;6.916;2023-03-08T01:37:39;2.50;99.90
15713;DHT22;7957;51.608;6.916;2023-03-08T01:40:07;2.50;99.90
15713;DHT22;7957;51.608;6.916;2023-03-08T01:42:37;2.50;99.90
15713;DHT22;7957;51.608;6.916;2023-03-08T01:45:52;2.50;99.90
15713;DHT22;7957;51.608;6.916;2023-03-08T01:47:53;2.40;99.90
15713;DHT22;7957;51.608;6.916;2023-03-08T01:50:20;2.40;99.90
15713;DHT22;7957;51.608;6.916;2023-03-08T01:52:49;2.40;99.90
15713;DHT22;7957;51.608;6.916;2023-03-08T01:55:18;2.50;99.90
15713;DHT22;7957;51.608;6.916;2023-03-08T01:57:49;2.40;99.90
15713;DHT22;7957;51.608;6.916;2023-03-08T02:00:19;2.40;99.90
15713;DHT22;7957;51.608;6.916;2023-03-08T02:02:51;2.40;99.90
15713;DHT22;7957;51.608;6.916;2023-03-08T02:05:18;2.40;99.90
15713;DHT22;7957;51.608;6.916;2023-03-08T02:07:46;2.40;99.90
15713;DHT22;7957;51.608;6.916;2023-03-08T02:10:14;2.40;99.90
15713;DHT22;7957;51.608;6.916;2023-03-08T02:12:42;2.40;99.90
15713;DHT22;7957;51.608;6.916;2023-03-08T02:15:13;2.30;99.90
15713;DHT22;7957;51.608;6.916;2023-03-08T02:17:41;2.40;99.90
15713;DHT22;7957;51.608;6.916;2023-03-08T02:20:12;2.30;99.90
15713;DHT22;7957;51.608;6.916;2023-03-08T02:22:42;2.30;99.90
15713;DHT22;7957;51.608;6.916;2023-03-08T02:25:13;2.30;99.90
15713;DHT22;7957;51.608;6.916;2023-03-08T02:27:40;2.30;99.90
15713;DHT22;7957;51.608;6.916;2023-03-08T02:30:09;2.30;99.90
15713;DHT22;7957;51.608;6.916;2023-03-08T02:32:36;2.30;99.90
15713;DHT22;7957;51.608;6.916;2023-03-08T02:35:04;2.30;99.90
15713;DHT22;7957;51.608;6.916;2023-03-08T02:37:31;2.30;99.90
15713;DHT22;7957;51.608;6.916;2023-03-08T02:40:00;2.30;99.90
15713;DHT22;7957;51.608;6.916;2023-03-08T02:42:26;2.30;99.90
15713;DHT22;7957;51.608;6.916;2023-03-08T02:44:53;2.30;99.90
15713;DHT22;7957;51.608;6.916;2023-03-08T02:47:20;2.30;99.90
15713;DHT22;7957;51.608;6.916;2023-03-08T02:49:47;2.30;99.90
15713;DHT22;7957;51.608;6.916;2023-03-08T02:52:14;2.30;99.90
15713;DHT22;7957;51.608;6.916;2023-03-08T02:54:41;2.30;99.90
15713;DHT22;7957;51.608;6.916;2023-03-08T02:57:10;2.30;99.90
15713;DHT22;7957;51.608;6.916;2023-03-08T02:59:37;2.30;99.90
15713;DHT22;7957;51.608;6.916;2023-03-08T03:02:03;2.30;99.90
15713;DHT22;7957;51.608;6.916;2023-03-08T03:04:31;2.30;99.90
15713;DHT22;7957;51.608;6.916;2023-03-08T03:06:59;2.30;99.90
15713;DHT22;7957;51.608;6.916;2023-03-08T03:09:26;2.30;99.90
15713;DHT22;7957;51.608;6.916;2023-03-08T03:11:53;2.30;99.90
15713;DHT22;7957;51.608;6.916;2023-03-08T03:14:22;2.30;99.90
15713;DHT22;7957;51.608;6.916;2023-03-08T03:16:49;2.30;99.90
15713;DHT22;7957;51.608;6.916;2023-03-08T03:19:17;2.30;99.90
15713;DHT22;7957;51.608;6.916;2023-03-08T03:21:44;2.30;99.90
15713;DHT22;7957;51.608;6.916;2023-03-08T03:24:12;2.30;99.90
15713;DHT22;7957;51.608;6.916;2023-03-08T03:26:38;2.20;99.90
15713;DHT22;7957;51.608;6.916;2023-03-08T03:29:05;2.30;99.90
15713;DHT22;7957;51.608;6.916;2023-03-08T03:31:34;2.30;99.90
15713;DHT22;7957;51.608;6.916;2023-03-08T03:34:01;2.30;99.90
15713;DHT22;7957;51.608;6.916;2023-03-08T03:36:28;2.30;99.90
15713;DHT22;7957;51.608;6.916;2023-03-08T03:38:55;2.20;99.90
15713;DHT22;7957;51.608;6.916;2023-03-08T03:41:22;2.30;99.90
15713;DHT22;7957;51.608;6.916;2023-03-08T03:43:49;2.20;99.90
15713;DHT22;7957;51.608;6.916;2023-03-08T03:46:18;2.30;99.90
15713;DHT22;7957;51.608;6.916;2023-03-08T03:48:47;2.30;99.90
15713;DHT22;7957;51.608;6.916;2023-03-08T03:51:16;2.20;99.90
15713;DHT22;7957;51.608;6.916;2023-03-08T03:53:44;2.20;99.90
15713;DHT22;7957;51.608;6.916;2023-03-08T03:56:13;2.30;99.90
15713;DHT22;7957;51.608;6.916;2023-03-08T03:58:41;2.30;99.90
15713;DHT22;7957;51.608;6.916;2023-03-08T04:01:09;2.30;99.90
15713;DHT22;7957;51.608;6.916;2023-03-08T04:03:37;2.30;99.90
15713;DHT22;7957;51.608;6.916;2023-03-08T04:06:06;2.20;99.90
15713;DHT22;7957;51.608;6.916;2023-03-08T04:08:34;2.20;99.90
15713;DHT22;7957;51.608;6.916;2023-03-08T04:11:06;2.20;99.90
15713;DHT22;7957;51.608;6.916;2023-03-08T04:13:33;2.20;99.90
15713;DHT22;7957;51.608;6.916;2023-03-08T04:16:06;2.20;99.90
15713;DHT22;7957;51.608;6.916;2023-03-08T04:18:34;2.20;99.90
15713;DHT22;7957;51.608;6.916;2023-03-08T04:21:01;2.20;99.90
15713;DHT22;7957;51.608;6.916;2023-03-08T04:23:30;2.30;99.90
15713;DHT22;7957;51.608;6.916;2023-03-08T04:25:57;2.20;99.90
15713;DHT22;7957;51.608;6.916;2023-03-08T04:28:24;2.20;99.90
15713;DHT22;7957;51.608;6.916;2023-03-08T04:30:52;2.30;99.90
15713;DHT22;7957;51.608;6.916;2023-03-08T04:33:19;2.20;99.90
15713;DHT22;7957;51.608;6.916;2023-03-08T04:35:46;2.20;99.90
15713;DHT22;7957;51.608;6.916;2023-03-08T04:38:13;2.30;99.90
15713;DHT22;7957;51.608;6.916;2023-03-08T04:40:48;2.20;99.90
15713;DHT22;7957;51.608;6.916;2023-03-08T04:43:30;2.20;99.90
15713;DHT22;7957;51.608;6.916;2023-03-08T04:45:57;2.20;99.90
15713;DHT22;7957;51.608;6.916;2023-03-08T04:48:24;2.20;99.90
15713;DHT22;7957;51.608;6.916;2023-03-08T04:50:52;2.30;99.90
15713;DHT22;7957;51.608;6.916;2023-03-08T04:53:19;2.20;99.90
15713;DHT22;7957;51.608;6.916;2023-03-08T04:55:48;2.20;99.90
15713;DHT22;7957;51.608;6.916;2023-03-08T04:58:15;2.20;99.90
15713;DHT22;7957;51.608;6.916;2023-03-08T05:00:42;2.20;99.90
15713;DHT22;7957;51.608;6.916;2023-03-08T05:03:10;2.20;99.90
15713;DHT22;7957;51.608;6.916;2023-03-08T05:05:43;2.20;99.90
15713;DHT22;7957;51.608;6.916;2023-03-08T05:08:10;2.20;99.90
15713;DHT22;7957;51.608;6.916;2023-03-08T05:10:38;2.20;99.90
15713;DHT22;7957;51.608;6.916;2023-03-08T05:13:06;2.20;99.90
15713;DHT22;7957;51.608;6.916;2023-03-08T05:15:33;2.20;99.90
15713;DHT22;7957;51.608;6.916;2023-03-08T05:18:00;2.20;99.90
15713;DHT22;7957;51.608;6.916;2023-03-08T05:20:27;2.20;99.90
15713;DHT22;7957;51.608;6.916;2023-03-08T05:22:54;2.20;99.90
15713;DHT22;7957;51.608;6.916;2023-03-08T05:25:21;2.20;99.90
15713;DHT22;7957;51.608;6.916;2023-03-08T05:27:48;2.20;99.90
15713;DHT22;7957;51.608;6.916;2023-03-08T05:30:16;2.20;99.90
15713;DHT22;7957;51.608;6.916;2023-03-08T05:32:44;2.20;99.90
15713;DHT22;7957;51.608;6.916;2023-03-08T05:35:11;2.20;99.90
15713;DHT22;7957;51.608;6.916;2023-03-08T05:37:38;2.20;99.90
15713;DHT22;7957;51.608;6.916;2023-03-08T05:40:06;2.20;99.90
15713;DHT22;7957;51.608;6.916;2023-03-08T05:42:34;2.20;99.90
15713;DHT22;7957;51.608;6.916;2023-03-08T05:45:01;2.20;99.90
15713;DHT22;7957;51.608;6.916;2023-03-08T05:47:29;2.20;99.90
15713;DHT22;7957;51.608;6.916;2023-03-08T05:49:56;2.20;99.90
15713;DHT22;7957;51.608;6.916;2023-03-08T05:52:23;2.20;99.90
15713;DHT22;7957;51.608;6.916;2023-03-08T05:54:50;2.20;99.90
15713;DHT22;7957;51.608;6.916;2023-03-08T05:57:20;2.20;99.90
15713;DHT22;7957;51.608;6.916;2023-03-08T05:59:47;2.20;99.90
15713;DHT22;7957;51.608;6.916;2023-03-08T06:02:14;2.20;99.90
15713;DHT22;7957;51.608;6.916;2023-03-08T06:04:43;2.20;99.90
15713;DHT22;7957;51.608;6.916;2023-03-08T06:07:10;2.20;99.90
15713;DHT22;7957;51.608;6.916;2023-03-08T06:09:37;2.20;99.90
15713;DHT22;7957;51.608;6.916;2023-03-08T06:12:04;2.20;99.90
15713;DHT22;7957;51.608;6.916;2023-03-08T06:14:32;2.20;99.90
15713;DHT22;7957;51.608;6.916;2023-03-08T06:16:59;2.20;99.90
15713;DHT22;7957;51.608;6.916;2023-03-08T06:19:26;2.20;99.90
15713;DHT22;7957;51.608;6.916;2023-03-08T06:21:54;2.20;99.90
15713;DHT22;7957;51.608;6.916;2023-03-08T06:24:21;2.20;99.90
15713;DHT22;7957;51.608;6.916;2023-03-08T06:26:48;2.20;99.90
15713;DHT22;7957;51.608;6.916;2023-03-08T06:29:15;2.20;99.90
15713;DHT22;7957;51.608;6.916;2023-03-08T06:31:45;2.20;99.90
15713;DHT22;7957;51.608;6.916;2023-03-08T06:34:12;2.20;99.90
15713;DHT22;7957;51.608;6.916;2023-03-08T06:36:42;2.20;99.90
15713;DHT22;7957;51.608;6.916;2023-03-08T06:39:11;2.20;99.90
15713;DHT22;7957;51.608;6.916;2023-03-08T06:41:38;2.20;99.90
15713;DHT22;7957;51.608;6.916;2023-03-08T06:44:05;2.20;99.90
15713;DHT22;7957;51.608;6.916;2023-03-08T06:46:32;2.20;99.90
15713;DHT22;7957;51.608;6.916;2023-03-08T06:48:59;2.20;99.90
15713;DHT22;7957;51.608;6.916;2023-03-08T06:51:27;2.20;99.90
15713;DHT22;7957;51.608;6.916;2023-03-08T06:53:57;2.20;99.90
15713;DHT22;7957;51.608;6.916;2023-03-08T06:56:26;2.20;99.90
15713;DHT22;7957;51.608;6.916;2023-03-08T06:58:53;2.20;99.90
15713;DHT22;7957;51.608;6.916;2023-03-08T07:01:20;2.20;99.90
15713;DHT22;7957;51.608;6.916;2023-03-08T07:03:48;2.20;99.90
15713;DHT22;7957;51.608;6.916;2023-03-08T07:06:17;2.20;99.90
15713;DHT22;7957;51.608;6.916;2023-03-08T07:08:44;2.20;99.90
15713;DHT22;7957;51.608;6.916;2023-03-08T07:11:11;2.20;99.90
15713;DHT22;7957;51.608;6.916;2023-03-08T07:13:39;2.20;99.90
15713;DHT22;7957;51.608;6.916;2023-03-08T07:16:07;2.20;99.90
15713;DHT22;7957;51.608;6.916;2023-03-08T07:18:34;2.20;99.90
15713;DHT22;7957;51.608;6.916;2023-03-08T07:21:01;2.20;99.90
15713;DHT22;7957;51.608;6.916;2023-03-08T07:23:28;2.20;99.90
15713;DHT22;7957;51.608;6.916;2023-03-08T07:25:55;2.20;99.90
15713;DHT22;7957;51.608;6.916;2023-03-08T07:28:22;2.20;99.90
15713;DHT22;7957;51.608;6.916;2023-03-08T07:30:52;2.20;99.90
15713;DHT22;7957;51.608;6.916;2023-03-08T07:33:19;2.20;99.90
15713;DHT22;7957;51.608;6.916;2023-03-08T07:35:47;2.20;99.90
15713;DHT22;7957;51.608;6.916;2023-03-08T07:38:14;2.20;99.90
15713;DHT22;7957;51.608;6.916;2023-03-08T07:40:41;2.20;99.90
15713;DHT22;7957;51.608;6.916;2023-03-08T07:43:09;2.10;99.90
15713;DHT22;7957;51.608;6.916;2023-03-08T07:45:36;2.20;99.90
15713;DHT22;7957;51.608;6.916;2023-03-08T07:48:06;2.20;99.90
15713;DHT22;7957;51.608;6.916;2023-03-08T07:50:33;2.20;99.90
15713;DHT22;7957;51.608;6.916;2023-03-08T07:53:00;2.10;99.90
15713;DHT22;7957;51.608;6.916;2023-03-08T07:55:29;2.10;99.90
15713;DHT22;7957;51.608;6.916;2023-03-08T07:57:56;2.10;99.90
15713;DHT22;7957;51.608;6.916;2023-03-08T08:00:23;2.10;99.90
15713;DHT22;7957;51.608;6.916;2023-03-08T08:02:50;2.10;99.90
15713;DHT22;7957;51.608;6.916;2023-03-08T08:05:20;2.10;99.90
15713;DHT22;7957;51.608;6.916;2023-03-08T08:07:47;2.10;99.90
15713;DHT22;7957;51.608;6.916;2023-03-08T08:10:15;2.10;99.90
15713;DHT22;7957;51.608;6.916;2023-03-08T08:12:42;2.10;99.90
15713;DHT22;7957;51.608;6.916;2023-03-08T08:15:10;2.10;99.90
15713;DHT22;7957;51.608;6.916;2023-03-08T08:17:37;2.10;99.90
15713;DHT22;7957;51.608;6.916;2023-03-08T08:20:04;2.10;99.90
15713;DHT22;7957;51.608;6.916;2023-03-08T08:22:35;2.10;99.90
15713;DHT22;7957;51.608;6.916;2023-03-08T08:25:03;2.10;99.90
15713;DHT22;7957;51.608;6.916;2023-03-08T08:27:30;2.10;99.90
15713;DHT22;7957;51.608;6.916;2023-03-08T08:29:57;2.10;99.90
15713;DHT22;7957;51.608;6.916;2023-03-08T08:32:24;2.10;99.90
15713;DHT22;7957;51.608;6.916;2023-03-08T08:34:51;2.10;99.90
15713;DHT22;7957;51.608;6.916;2023-03-08T08:37:18;2.10;99.90
15713;DHT22;7957;51.608;6.916;2023-03-08T08:39:47;2.10;99.90
15713;DHT22;7957;51.608;6.916;2023-03-08T08:42:14;2.10;99.90
15713;DHT22;7957;51.608;6.916;2023-03-08T08:44:41;2.10;99.90
15713;DHT22;7957;51.608;6.916;2023-03-08T08:47:08;2.10;99.90
15713;DHT22;7957;51.608;6.916;2023-03-08T08:49:34;2.10;99.90
15713;DHT22;7957;51.608;6.916;2023-03-08T08:52:04;2.10;99.90
15713;DHT22;7957;51.608;6.916;2023-03-08T08:54:31;2.10;99.90
15713;DHT22;7957;51.608;6.916;2023-03-08T08:57:00;2.10;99.90
15713;DHT22;7957;51.608;6.916;2023-03-08T08:59:26;2.10;99.90
15713;DHT22;7957;51.608;6.916;2023-03-08T09:01:53;2.10;99.90
15713;DHT22;7957;51.608;6.916;2023-03-08T09:04:20;2.10;99.90
15713;DHT22;7957;51.608;6.916;2023-03-08T09:06:47;2.10;99.90
15713;DHT22;7957;51.608;6.916;2023-03-08T09:09:16;2.10;99.90
15713;DHT22;7957;51.608;6.916;2023-03-08T09:11:43;2.00;99.90
15713;DHT22;7957;51.608;6.916;2023-03-08T09:14:13;2.10;99.90
15713;DHT22;7957;51.608;6.916;2023-03-08T09:16:40;2.00;99.90
15713;DHT22;7957;51.608;6.916;2023-03-08T09:19:07;2.10;99.90
15713;DHT22;7957;51.608;6.916;2023-03-08T09:21:35;2.00;99.90
15713;DHT22;7957;51.608;6.916;2023-03-08T09:24:04;2.10;99.90
15713;DHT22;7957;51.608;6.916;2023-03-08T09:26:34;2.00;99.90
15713;DHT22;7957;51.608;6.916;2023-03-08T09:29:01;2.10;99.90
15713;DHT22;7957;51.608;6.916;2023-03-08T09:31:32;2.00;99.90
15713;DHT22;7957;51.608;6.916;2023-03-08T09:33:59;2.00;99.90
15713;DHT22;7957;51.608;6.916;2023-03-08T09:36:29;2.00;99.90
15713;DHT22;7957;51.608;6.916;2023-03-08T09:38:56;2.00;99.90
15713;DHT22;7957;51.608;6.916;2023-03-08T09:41:44;2.00;99.90
15713;DHT22;7957;51.608;6.916;2023-03-08T09:44:17;2.00;99.90
15713;DHT22;7957;51.608;6.916;2023-03-08T09:46:54;2.00;99.90
15713;DHT22;7957;51.608;6.916;2023-03-08T09:49:27;2.10;99.90
15713;DHT22;7957;51.608;6.916;2023-03-08T09:52:00;2.00;99.90
15713;DHT22;7957;51.608;6.916;2023-03-08T09:54:29;2.10;99.90
15713;DHT22;7957;51.608;6.916;2023-03-08T09:56:59;2.10;99.90
15713;DHT22;7957;51.608;6.916;2023-03-08T09:59:31;2.10;99.90
15713;DHT22;7957;51.608;6.916;2023-03-08T10:02:10;2.10;99.90
15713;DHT22;7957;51.608;6.916;2023-03-08T10:04:54;2.10;99.90
15713;DHT22;7957;51.608;6.916;2023-03-08T10:07:33;2.10;99.90
15713;DHT22;7957;51.608;6.916;2023-03-08T10:10:12;2.10;99.90
15713;DHT22;7957;51.608;6.916;2023-03-08T10:12:53;2.10;99.90
15713;DHT22;7957;51.608;6.916;2023-03-08T10:15:24;2.10;99.90
15713;DHT22;7957;51.608;6.916;2023-03-08T10:17:56;2.10;99.90
15713;DHT22;7957;51.608;6.916;2023-03-08T10:20:27;2.10;99.90
15713;DHT22;7957;51.608;6.916;2023-03-08T10:22:57;2.10;99.90
15713;DHT22;7957;51.608;6.916;2023-03-08T10:25:27;2.10;99.90
15713;DHT22;7957;51.608;6.916;2023-03-08T10:27:57;2.10;99.90
15713;DHT22;7957;51.608;6.916;2023-03-08T10:30:27;2.10;99.90
15713;DHT22;7957;51.608;6.916;2023-03-08T10:32:57;2.10;99.90
15713;DHT22;7957;51.608;6.916;2023-03-08T10:35:33;2.10;99.90
15713;DHT22;7957;51.608;6.916;2023-03-08T10:38:01;2.00;99.90
15713;DHT22;7957;51.608;6.916;2023-03-08T10:40:28;1.80;99.90
15713;DHT22;7957;51.608;6.916;2023-03-08T10:42:57;1.80;99.90
15713;DHT22;7957;51.608;6.916;2023-03-08T10:45:26;1.70;99.90
15713;DHT22;7957;51.608;6.916;2023-03-08T10:47:57;1.80;99.90
15713;DHT22;7957;51.608;6.916;2023-03-08T10:50:26;1.90;99.90
15713;DHT22;7957;51.608;6.916;2023-03-08T10:53:07;2.00;99.90
15713;DHT22;7957;51.608;6.916;2023-03-08T10:55:48;2.00;99.90
15713;DHT22;7957;51.608;6.916;2023-03-08T10:58:32;2.10;99.90
15713;DHT22;7957;51.608;6.916;2023-03-08T11:01:05;2.10;99.90
15713;DHT22;7957;51.608;6.916;2023-03-08T11:03:33;2.10;99.90
15713;DHT22;7957;51.608;6.916;2023-03-08T11:06:02;2.10;99.90
15713;DHT22;7957;51.608;6.916;2023-03-08T11:08:32;2.10;99.90
15713;DHT22;7957;51.608;6.916;2023-03-08T11:11:05;2.20;99.90
15713;DHT22;7957;51.608;6.916;2023-03-08T11:13:34;2.30;99.90
15713;DHT22;7957;51.608;6.916;2023-03-08T11:16:13;2.40;99.90
15713;DHT22;7957;51.608;6.916;2023-03-08T11:18:50;2.40;99.90
15713;DHT22;7957;51.608;6.916;2023-03-08T11:21:32;2.40;99.90
15713;DHT22;7957;51.608;6.916;2023-03-08T11:24:22;2.50;99.90
15713;DHT22;7957;51.608;6.916;2023-03-08T11:27:12;2.50;99.90
15713;DHT22;7957;51.608;6.916;2023-03-08T11:29:54;2.50;99.90
15713;DHT22;7957;51.608;6.916;2023-03-08T11:32:38;2.50;99.90
15713;DHT22;7957;51.608;6.916;2023-03-08T11:35:16;2.50;99.90
15713;DHT22;7957;51.608;6.916;2023-03-08T11:37:55;2.50;99.90
15713;DHT22;7957;51.608;6.916;2023-03-08T11:40:28;2.50;99.90
15713;DHT22;7957;51.608;6.916;2023-03-08T11:43:20;2.50;99.90
15713;DHT22;7957;51.608;6.916;2023-03-08T11:45:55;2.50;99.90
15713;DHT22;7957;51.608;6.916;2023-03-08T11:51:30;2.50;99.90
15713;DHT22;7957;51.608;6.916;2023-03-08T11:54:10;2.50;99.90
15713;DHT22;7957;51.608;6.916;2023-03-08T11:56:46;2.50;99.90
15713;DHT22;7957;51.608;6.916;2023-03-08T11:59:23;2.50;99.90
15713;DHT22;7957;51.608;6.916;2023-03-08T12:01:55;2.50;99.90
15713;DHT22;7957;51.608;6.916;2023-03-08T12:04:27;2.50;99.90
15713;DHT22;7957;51.608;6.916;2023-03-08T12:07:00;2.50;99.90
15713;DHT22;7957;51.608;6.916;2023-03-08T12:09:32;2.50;99.90
15713;DHT22;7957;51.608;6.916;2023-03-08T12:12:04;2.50;99.90
15713;DHT22;7957;51.608;6.916;2023-03-08T12:14:33;2.50;99.90
15713;DHT22;7957;51.608;6.916;2023-03-08T12:17:06;2.50;99.90
15713;DHT22;7957;51.608;6.916;2023-03-08T12:19:41;2.50;99.90
15713;DHT22;7957;51.608;6.916;2023-03-08T12:22:21;2.50;99.90
15713;DHT22;7957;51.608;6.916;2023-03-08T12:24:55;2.40;99.90
15713;DHT22;7957;51.608;6.916;2023-03-08T12:27:28;2.40;99.90
15713;DHT22;7957;51.608;6.916;2023-03-08T12:30:00;2.40;99.90
15713;DHT22;7957;51.608;6.916;2023-03-08T12:32:30;2.50;99.90
15713;DHT22;7957;51.608;6.916;2023-03-08T12:35:02;2.40;99.90
15713;DHT22;7957;51.608;6.916;2023-03-08T12:37:31;2.40;99.90
15713;DHT22;7957;51.608;6.916;2023-03-08T12:40:05;2.40;99.90
15713;DHT22;7957;51.608;6.916;2023-03-08T12:42:36;2.50;99.90
15713;DHT22;7957;51.608;6.916;2023-03-08T12:45:27;2.50;99.90
15713;DHT22;7957;51.608;6.916;2023-03-08T12:47:59;2.50;99.90
15713;DHT22;7957;51.608;6.916;2023-03-08T12:50:28;2.50;99.90
15713;DHT22;7957;51.608;6.916;2023-03-08T12:52:56;2.50;99.90
15713;DHT22;7957;51.608;6.916;2023-03-08T12:55:26;2.50;99.90
15713;DHT22;7957;51.608;6.916;2023-03-08T12:57:57;2.50;99.90
15713;DHT22;7957;51.608;6.916;2023-03-08T13:00:28;2.50;99.90
15713;DHT22;7957;51.608;6.916;2023-03-08T13:03:04;2.60;99.90
15713;DHT22;7957;51.608;6.916;2023-03-08T13:05:33;2.50;99.90
15713;DHT22;7957;51.608;6.916;2023-03-08T13:08:18;2.50;99.90
15713;DHT22;7957;51.608;6.916;2023-03-08T13:11:02;2.60;99.90
15713;DHT22;7957;51.608;6.916;2023-03-08T13:13:41;2.60;99.90
15713;DHT22;7957;51.608;6.916;2023-03-08T13:16:28;2.60;99.90
15713;DHT22;7957;51.608;6.916;2023-03-08T13:19:05;2.60;99.90
15713;DHT22;7957;51.608;6.916;2023-03-08T13:21:37;2.60;99.90
15713;DHT22;7957;51.608;6.916;2023-03-08T13:24:12;2.70;99.90
15713;DHT22;7957;51.608;6.916;2023-03-08T13:26:52;2.70;99.90
15713;DHT22;7957;51.608;6.916;2023-03-08T13:29:21;2.70;99.90
15713;DHT22;7957;51.608;6.916;2023-03-08T13:31:54;2.70;99.90
15713;DHT22;7957;51.608;6.916;2023-03-08T13:34:24;2.80;99.90
15713;DHT22;7957;51.608;6.916;2023-03-08T13:36:51;2.80;99.90
15713;DHT22;7957;51.608;6.916;2023-03-08T13:39:22;2.80;99.90
15713;DHT22;7957;51.608;6.916;2023-03-08T13:41:50;2.80;99.90
15713;DHT22;7957;51.608;6.916;2023-03-08T13:44:21;2.80;99.90
15713;DHT22;7957;51.608;6.916;2023-03-08T13:46:49;2.80;99.90
15713;DHT22;7957;51.608;6.916;2023-03-08T13:49:21;2.80;99.90
15713;DHT22;7957;51.608;6.916;2023-03-08T13:51:54;2.80;99.90
15713;DHT22;7957;51.608;6.916;2023-03-08T13:54:27;2.80;99.90
15713;DHT22;7957;51.608;6.916;2023-03-08T13:56:55;2.80;99.90
15713;DHT22;7957;51.608;6.916;2023-03-08T13:59:22;2.80;99.90
15713;DHT22;7957;51.608;6.916;2023-03-08T14:01:50;2.80;99.90
15713;DHT22;7957;51.608;6.916;2023-03-08T14:04:20;2.80;99.90
15713;DHT22;7957;51.608;6.916;2023-03-08T14:06:48;2.80;99.90
15713;DHT22;7957;51.608;6.916;2023-03-08T14:09:18;2.80;99.90
15713;DHT22;7957;51.608;6.916;2023-03-08T14:11:54;2.80;99.90
15713;DHT22;7957;51.608;6.916;2023-03-08T14:14:27;2.90;99.90
15713;DHT22;7957;51.608;6.916;2023-03-08T14:16:54;2.90;99.90
15713;DHT22;7957;51.608;6.916;2023-03-08T14:19:25;2.90;99.90
15713;DHT22;7957;51.608;6.916;2023-03-08T14:21:54;2.90;99.90
15713;DHT22;7957;51.608;6.916;2023-03-08T14:24:24;3.00;99.90
15713;DHT22;7957;51.608;6.916;2023-03-08T14:26:56;3.00;99.90
15713;DHT22;7957;51.608;6.916;2023-03-08T14:29:25;3.00;99.90
15713;DHT22;7957;51.608;6.916;2023-03-08T14:31:59;3.00;99.90
15713;DHT22;7957;51.608;6.916;2023-03-08T14:34:28;3.00;99.90
15713;DHT22;7957;51.608;6.916;2023-03-08T14:37:01;3.00;99.90
15713;DHT22;7957;51.608;6.916;2023-03-08T14:39:31;3.10;99.90
15713;DHT22;7957;51.608;6.916;2023-03-08T14:42:14;3.00;99.90
15713;DHT22;7957;51.608;6.916;2023-03-08T14:44:47;3.00;99.90
15713;DHT22;7957;51.608;6.916;2023-03-08T14:47:20;3.00;99.90
15713;DHT22;7957;51.608;6.916;2023-03-08T14:49:59;3.00;99.90
15713;DHT22;7957;51.608;6.916;2023-03-08T14:52:28;3.00;99.90
15713;DHT22;7957;51.608;6.916;2023-03-08T14:54:55;3.00;99.90
15713;DHT22;7957;51.608;6.916;2023-03-08T14:57:24;3.00;99.90
15713;DHT22;7957;51.608;6.916;2023-03-08T14:59:53;3.00;99.90
15713;DHT22;7957;51.608;6.916;2023-03-08T15:02:22;3.00;99.90
15713;DHT22;7957;51.608;6.916;2023-03-08T15:04:48;3.00;99.90
15713;DHT22;7957;51.608;6.916;2023-03-08T15:07:18;3.00;99.90
15713;DHT22;7957;51.608;6.916;2023-03-08T15:09:46;3.00;99.90
15713;DHT22;7957;51.608;6.916;2023-03-08T15:12:13;3.00;99.90
15713;DHT22;7957;51.608;6.916;2023-03-08T15:14:41;3.00;99.90
15713;DHT22;7957;51.608;6.916;2023-03-08T15:17:08;3.00;99.90
15713;DHT22;7957;51.608;6.916;2023-03-08T15:19:35;3.00;99.90
15713;DHT22;7957;51.608;6.916;2023-03-08T15:22:04;3.00;99.90
15713;DHT22;7957;51.608;6.916;2023-03-08T15:24:31;3.00;99.90
15713;DHT22;7957;51.608;6.916;2023-03-08T15:26:58;3.00;99.90
15713;DHT22;7957;51.608;6.916;2023-03-08T15:29:26;3.00;99.90
15713;DHT22;7957;51.608;6.916;2023-03-08T15:31:56;3.00;99.90
15713;DHT22;7957;51.608;6.916;2023-03-08T15:34:24;3.00;99.90
15713;DHT22;7957;51.608;6.916;2023-03-08T15:36:52;3.00;99.90
15713;DHT22;7957;51.608;6.916;2023-03-08T15:39:19;3.00;99.90
15713;DHT22;7957;51.608;6.916;2023-03-08T15:41:46;2.90;99.90
15713;DHT22;7957;51.608;6.916;2023-03-08T15:44:13;3.00;99.90
15713;DHT22;7957;51.608;6.916;2023-03-08T15:46:41;3.00;99.90
15713;DHT22;7957;51.608;6.916;2023-03-08T15:49:10;3.00;99.90
15713;DHT22;7957;51.608;6.916;2023-03-08T15:51:37;3.00;99.90
15713;DHT22;7957;51.608;6.916;2023-03-08T15:54:05;3.00;99.90
15713;DHT22;7957;51.608;6.916;2023-03-08T15:56:32;3.00;99.90
15713;DHT22;7957;51.608;6.916;2023-03-08T15:59:00;3.00;99.90
15713;DHT22;7957;51.608;6.916;2023-03-08T16:01:27;2.90;99.90
15713;DHT22;7957;51.608;6.916;2023-03-08T16:03:55;3.00;99.90
15713;DHT22;7957;51.608;6.916;2023-03-08T16:06:24;2.90;99.90
15713;DHT22;7957;51.608;6.916;2023-03-08T16:08:51;2.90;99.90
15713;DHT22;7957;51.608;6.916;2023-03-08T16:11:19;2.90;99.90
15713;DHT22;7957;51.608;6.916;2023-03-08T16:13:48;2.90;99.90
15713;DHT22;7957;51.608;6.916;2023-03-08T16:16:16;2.90;99.90
15713;DHT22;7957;51.608;6.916;2023-03-08T16:18:43;2.90;99.90
15713;DHT22;7957;51.608;6.916;2023-03-08T16:21:10;2.90;99.90